createdAt,value
2022-08-17T00:01:51.863Z,32.00
2022-08-17T00:04:24.324Z,32.00
2022-08-17T00:06:56.649Z,32.00
2022-08-17T00:09:27.405Z,31.80
2022-08-17T00:12:41.878Z,31.80
2022-08-17T00:14:51.193Z,31.80
2022-08-17T00:17:22.001Z,31.80
2022-08-17T00:19:52.721Z,31.70
2022-08-17T00:22:31.610Z,31.50
2022-08-17T00:25:08.713Z,31.50
2022-08-17T00:27:39.789Z,31.50
2022-08-17T00:30:12.862Z,31.50
2022-08-17T00:33:12.321Z,31.50
2022-08-17T00:35:38.487Z,31.50
2022-08-17T00:38:12.974Z,31.40
2022-08-17T00:40:46.325Z,31.40
2022-08-17T00:43:21.549Z,31.40
2022-08-17T00:45:52.611Z,31.20
2022-08-17T00:48:30.032Z,31.20
2022-08-17T00:51:09.765Z,31.00
2022-08-17T00:53:45.682Z,30.90
2022-08-17T00:56:20.319Z,30.90
2022-08-17T00:58:54.355Z,30.90
2022-08-17T01:01:25.690Z,31.00
2022-08-17T01:03:59.636Z,31.00
2022-08-17T01:06:32.201Z,31.00
2022-08-17T01:09:05.852Z,31.10
2022-08-17T01:11:40.997Z,31.00
2022-08-17T01:14:12.057Z,31.00
2022-08-17T01:16:43.177Z,31.00
2022-08-17T01:19:20.995Z,30.90
2022-08-17T01:21:59.860Z,30.80
2022-08-17T01:24:33.799Z,30.90
2022-08-17T01:27:10.520Z,30.80
2022-08-17T01:29:43.641Z,30.70
2022-08-17T01:32:14.650Z,30.60
2022-08-17T01:34:50.523Z,30.50
2022-08-17T01:37:23.239Z,30.40
2022-08-17T01:40:00.213Z,30.40
2022-08-17T01:42:36.269Z,30.40
2022-08-17T01:45:11.749Z,30.30
2022-08-17T01:47:42.537Z,30.30
2022-08-17T01:50:17.684Z,30.20
2022-08-17T01:52:50.090Z,30.20
2022-08-17T01:55:27.590Z,30.10
2022-08-17T01:57:58.526Z,30.10
2022-08-17T02:00:46.818Z,30.00
2022-08-17T02:03:22.189Z,29.90
2022-08-17T02:05:54.171Z,29.80
2022-08-17T02:08:36.900Z,29.70
2022-08-17T02:11:15.385Z,29.70
2022-08-17T02:13:46.185Z,29.50
2022-08-17T02:16:17.873Z,29.50
2022-08-17T02:18:48.828Z,29.50
2022-08-17T02:21:19.747Z,29.40
2022-08-17T02:23:51.565Z,29.40
2022-08-17T02:26:26.633Z,29.40
2022-08-17T02:28:57.607Z,29.20
2022-08-17T02:31:28.362Z,29.10
2022-08-17T02:34:04.740Z,29.00
2022-08-17T02:36:37.233Z,28.90
2022-08-17T02:39:09.981Z,28.70
2022-08-17T02:41:42.835Z,28.70
2022-08-17T02:44:13.586Z,28.60
2022-08-17T02:47:04.377Z,28.50
2022-08-17T02:49:36.123Z,28.40
2022-08-17T02:52:09.256Z,28.20
2022-08-17T02:54:42.404Z,28.10
2022-08-17T02:57:16.117Z,28.00
2022-08-17T02:59:49.031Z,27.90
2022-08-17T03:02:20.027Z,27.80
2022-08-17T03:04:50.845Z,27.80
2022-08-17T03:07:21.573Z,27.60
2022-08-17T03:09:54.759Z,27.60
2022-08-17T03:12:27.375Z,27.50
2022-08-17T03:14:58.108Z,27.40
2022-08-17T03:17:28.944Z,27.30
2022-08-17T03:19:59.821Z,27.20
2022-08-17T03:22:36.276Z,27.10
2022-08-17T03:25:10.766Z,26.90
2022-08-17T03:27:43.434Z,26.80
2022-08-17T03:30:19.178Z,26.70
2022-08-17T03:32:53.413Z,26.60
2022-08-17T03:35:26.402Z,26.50
2022-08-17T03:38:00.821Z,26.60
2022-08-17T03:40:41.077Z,26.70
2022-08-17T03:43:26.142Z,26.70
2022-08-17T03:46:28.581Z,26.70
2022-08-17T03:49:20.784Z,26.60
2022-08-17T03:52:08.133Z,26.60
2022-08-17T03:54:55.996Z,26.50
2022-08-17T03:57:26.910Z,26.30
2022-08-17T03:59:59.605Z,26.20
2022-08-17T04:02:32.954Z,26.10
2022-08-17T04:05:04.062Z,26.00
2022-08-17T04:07:35.239Z,26.00
2022-08-17T04:10:06.377Z,25.90
2022-08-17T04:12:49.372Z,25.90
2022-08-17T04:15:22.075Z,25.80
2022-08-17T04:17:52.806Z,25.70
2022-08-17T04:20:25.774Z,25.60
2022-08-17T04:23:02.909Z,25.60
2022-08-17T04:25:37.213Z,25.60
2022-08-17T04:28:09.416Z,25.50
2022-08-17T04:30:49.908Z,25.40
2022-08-17T04:33:24.838Z,25.30
2022-08-17T04:36:01.091Z,25.30
2022-08-17T04:38:35.258Z,25.30
2022-08-17T04:41:24.042Z,25.20
2022-08-17T04:43:59.241Z,25.10
2022-08-17T04:46:40.581Z,25.00
2022-08-17T04:49:13.314Z,25.10
2022-08-17T04:51:54.471Z,25.00
2022-08-17T04:54:27.188Z,25.10
2022-08-17T04:56:58.119Z,25.10
2022-08-17T04:59:29.128Z,25.10
2022-08-17T05:02:01.947Z,25.10
2022-08-17T05:04:35.201Z,25.10
2022-08-17T05:07:06.409Z,25.00
2022-08-17T05:09:37.135Z,25.00
2022-08-17T05:12:09.220Z,24.90
2022-08-17T05:14:42.190Z,24.80
2022-08-17T05:17:14.533Z,24.80
2022-08-17T05:19:47.649Z,24.70
2022-08-17T05:22:22.169Z,24.60
2022-08-17T05:24:53.926Z,24.40
2022-08-17T05:27:29.278Z,24.40
2022-08-17T05:30:06.620Z,24.40
2022-08-17T05:32:40.413Z,24.40
2022-08-17T05:35:11.925Z,24.30
2022-08-17T05:37:42.688Z,24.20
2022-08-17T05:40:14.299Z,24.20
2022-08-17T05:42:45.214Z,24.20
2022-08-17T05:45:16.532Z,24.10
2022-08-17T05:48:04.508Z,24.10
2022-08-17T05:50:52.113Z,24.10
2022-08-17T05:53:29.216Z,24.10
2022-08-17T05:56:30.200Z,24.00
2022-08-17T05:59:11.097Z,24.00
2022-08-17T06:01:51.045Z,24.00
2022-08-17T06:04:34.340Z,24.00
2022-08-17T06:07:11.300Z,23.90
2022-08-17T06:09:48.888Z,23.90
2022-08-17T06:12:36.747Z,23.80
2022-08-17T06:15:25.408Z,23.80
2022-08-17T06:18:01.643Z,23.70
2022-08-17T06:20:45.627Z,23.70
2022-08-17T06:23:20.107Z,23.60
2022-08-17T06:25:56.188Z,23.60
2022-08-17T06:28:32.972Z,23.60
2022-08-17T06:31:09.626Z,23.60
2022-08-17T06:33:42.466Z,23.50
2022-08-17T06:36:29.537Z,23.50
2022-08-17T06:39:10.301Z,23.50
2022-08-17T06:41:50.755Z,23.50
2022-08-17T06:44:49.819Z,23.50
2022-08-17T06:47:28.001Z,23.40
2022-08-17T06:50:09.787Z,23.30
2022-08-17T06:52:51.318Z,23.30
2022-08-17T06:55:28.572Z,23.20
2022-08-17T06:58:05.860Z,23.20
2022-08-17T07:00:51.541Z,23.20
2022-08-17T07:03:42.347Z,23.10
2022-08-17T07:06:17.673Z,23.10
2022-08-17T07:09:00.399Z,23.10
2022-08-17T07:11:34.970Z,23.00
2022-08-17T07:14:23.228Z,23.00
2022-08-17T07:16:56.175Z,22.90
2022-08-17T07:19:29.725Z,22.90
2022-08-17T07:22:08.552Z,22.90
2022-08-17T07:24:48.131Z,22.90
2022-08-17T07:27:21.815Z,22.80
2022-08-17T07:29:57.393Z,22.80
2022-08-17T07:32:32.352Z,22.80
2022-08-17T07:35:15.331Z,22.70
2022-08-17T07:37:51.724Z,22.80
2022-08-17T07:40:31.824Z,22.70
2022-08-17T07:43:15.649Z,22.70
2022-08-17T07:46:30.978Z,22.70
2022-08-17T07:49:21.379Z,22.60
2022-08-17T07:52:24.221Z,22.60
2022-08-17T07:54:52.120Z,22.50
2022-08-17T07:57:38.905Z,22.50
2022-08-17T08:00:23.930Z,22.50
2022-08-17T08:03:17.402Z,22.50
2022-08-17T08:05:55.929Z,22.40
2022-08-17T08:08:30.755Z,22.40
2022-08-17T08:11:04.870Z,22.30
2022-08-17T08:13:41.264Z,22.30
2022-08-17T08:16:30.435Z,22.30
2022-08-17T08:19:04.984Z,22.30
2022-08-17T08:21:43.108Z,22.30
2022-08-17T08:24:31.432Z,22.20
2022-08-17T08:27:11.202Z,22.20
2022-08-17T08:29:54.729Z,22.10
2022-08-17T08:32:39.284Z,22.10
2022-08-17T08:35:16.292Z,22.10
2022-08-17T08:37:54.809Z,22.10
2022-08-17T08:40:39.530Z,22.10
2022-08-17T08:43:29.047Z,22.00
2022-08-17T08:46:10.616Z,22.00
2022-08-17T08:49:06.466Z,22.00
2022-08-17T08:51:53.356Z,22.00
2022-08-17T08:54:35.632Z,21.90
2022-08-17T08:57:29.139Z,21.80
2022-08-17T09:00:13.607Z,21.80
2022-08-17T09:03:09.215Z,21.80
2022-08-17T09:06:03.644Z,21.70
2022-08-17T09:08:47.042Z,21.60
2022-08-17T09:11:25.106Z,21.60
2022-08-17T09:14:06.233Z,21.60
2022-08-17T09:17:00.348Z,21.60
2022-08-17T09:19:40.735Z,21.50
2022-08-17T09:22:25.021Z,21.50
2022-08-17T09:25:01.728Z,21.40
2022-08-17T09:27:36.929Z,21.40
2022-08-17T09:30:12.720Z,21.40
2022-08-17T09:32:45.445Z,21.40
2022-08-17T09:35:21.339Z,21.30
2022-08-17T09:38:03.907Z,21.20
2022-08-17T09:40:42.099Z,21.20
2022-08-17T09:43:21.977Z,21.10
2022-08-17T09:45:56.660Z,21.20
2022-08-17T09:48:32.901Z,21.20
2022-08-17T09:51:10.491Z,21.00
2022-08-17T09:53:44.576Z,21.00
2022-08-17T09:56:43.772Z,21.00
2022-08-17T09:59:39.667Z,20.90
2022-08-17T10:02:32.776Z,20.80
2022-08-17T10:05:10.532Z,20.80
2022-08-17T10:07:48.312Z,20.70
2022-08-17T10:10:25.747Z,20.80
2022-08-17T10:13:02.444Z,20.80
2022-08-17T10:15:45.662Z,20.70
2022-08-17T10:18:31.921Z,20.60
2022-08-17T10:21:24.917Z,20.60
2022-08-17T10:24:21.813Z,20.50
2022-08-17T10:26:56.730Z,20.40
2022-08-17T10:29:44.145Z,20.40
2022-08-17T10:32:33.364Z,20.40
2022-08-17T10:35:30.820Z,20.30
2022-08-17T10:38:34.782Z,20.30
2022-08-17T10:41:19.683Z,20.20
2022-08-17T10:44:39.397Z,20.10
2022-08-17T10:47:04.372Z,20.10
2022-08-17T10:49:37.489Z,20.00
2022-08-17T10:52:43.059Z,19.90
2022-08-17T10:55:17.433Z,19.80
2022-08-17T10:57:51.955Z,19.80
2022-08-17T11:00:55.502Z,19.80
2022-08-17T11:03:28.455Z,19.60
2022-08-17T11:06:13.459Z,19.60
2022-08-17T11:09:27.073Z,19.60
2022-08-17T11:12:12.804Z,19.60
2022-08-17T11:15:02.914Z,19.60
2022-08-17T11:17:51.104Z,19.60
2022-08-17T11:20:42.119Z,19.50
2022-08-17T11:23:45.620Z,19.50
2022-08-17T11:26:28.537Z,19.50
2022-08-17T11:29:02.924Z,19.40
2022-08-17T11:31:40.047Z,19.40
2022-08-17T11:34:19.905Z,19.40
2022-08-17T11:37:23.375Z,19.30
2022-08-17T11:40:37.849Z,19.30
2022-08-17T11:43:45.311Z,19.30
2022-08-17T11:46:24.512Z,19.20
2022-08-17T11:49:22.716Z,19.20
2022-08-17T11:52:17.760Z,19.20
2022-08-17T11:54:50.272Z,19.10
2022-08-17T11:57:59.571Z,19.00
2022-08-17T12:01:01.078Z,19.00
2022-08-17T12:03:55.900Z,19.00
2022-08-17T12:06:57.748Z,18.90
2022-08-17T12:09:32.455Z,18.90
2022-08-17T12:12:12.946Z,18.80
2022-08-17T12:15:10.449Z,18.80
2022-08-17T12:17:49.167Z,18.70
2022-08-17T12:20:31.344Z,18.70
2022-08-17T12:23:11.924Z,18.70
2022-08-17T12:25:50.116Z,18.70
2022-08-17T12:28:27.309Z,18.70
2022-08-17T12:31:02.227Z,18.60
2022-08-17T12:33:34.237Z,18.50
2022-08-17T12:36:08.315Z,18.60
2022-08-17T12:38:42.588Z,18.50
2022-08-17T12:41:29.783Z,18.50
2022-08-17T12:44:03.331Z,18.40
2022-08-17T12:46:36.944Z,18.40
2022-08-17T12:49:19.422Z,18.40
2022-08-17T12:51:50.602Z,18.40
2022-08-17T12:54:32.228Z,18.40
2022-08-17T12:57:08.729Z,18.40
2022-08-17T12:59:45.203Z,18.30
2022-08-17T13:02:30.416Z,18.30
2022-08-17T13:05:03.503Z,18.20
2022-08-17T13:07:38.180Z,18.10
2022-08-17T13:10:16.404Z,18.00
2022-08-17T13:12:47.162Z,18.00
2022-08-17T13:15:25.071Z,17.90
2022-08-17T13:18:06.318Z,18.00
2022-08-17T13:20:39.629Z,18.00
2022-08-17T13:23:12.900Z,18.00
2022-08-17T13:25:47.438Z,18.00
2022-08-17T13:28:29.768Z,17.90
2022-08-17T13:31:33.793Z,17.80
2022-08-17T13:34:19.112Z,17.80
2022-08-17T13:36:50.658Z,17.90
2022-08-17T13:39:24.567Z,17.90
2022-08-17T13:41:58.709Z,17.80
2022-08-17T13:44:40.011Z,17.90
2022-08-17T13:47:20.638Z,18.00
2022-08-17T13:49:52.117Z,18.00
2022-08-17T13:52:39.497Z,18.00
2022-08-17T13:55:20.323Z,18.00
2022-08-17T13:58:06.626Z,18.00
2022-08-17T14:00:40.276Z,18.00
2022-08-17T14:03:10.977Z,18.10
2022-08-17T14:05:42.921Z,18.20
2022-08-17T14:08:16.274Z,18.20
2022-08-17T14:10:47.485Z,18.20
2022-08-17T14:13:19.860Z,18.20
2022-08-17T14:15:56.021Z,18.30
2022-08-17T14:18:55.549Z,18.20
2022-08-17T14:21:18.401Z,18.30
2022-08-17T14:23:54.652Z,18.40
2022-08-17T14:26:25.810Z,18.40
2022-08-17T14:28:58.213Z,18.50
2022-08-17T14:31:36.787Z,18.50
2022-08-17T14:34:08.939Z,18.60
2022-08-17T14:36:41.124Z,18.60
2022-08-17T14:39:19.960Z,18.60
2022-08-17T14:41:50.798Z,18.70
2022-08-17T14:44:23.173Z,18.80
2022-08-17T14:46:53.955Z,19.00
2022-08-17T14:49:26.721Z,19.20
2022-08-17T14:51:57.485Z,19.40
2022-08-17T14:54:33.975Z,19.50
2022-08-17T14:57:25.165Z,19.80
2022-08-17T14:59:59.964Z,20.00
2022-08-17T15:02:31.809Z,20.50
2022-08-17T15:05:03.581Z,21.60
2022-08-17T15:07:34.497Z,23.00
2022-08-17T15:10:05.565Z,24.30
2022-08-17T15:12:36.777Z,25.90
2022-08-17T15:15:11.147Z,27.70
2022-08-17T15:17:54.960Z,29.00
2022-08-17T15:20:28.409Z,30.10
2022-08-17T15:23:00.475Z,31.20
2022-08-17T15:25:32.907Z,31.80
2022-08-17T15:28:04.957Z,32.10
2022-08-17T15:30:37.685Z,33.10
2022-08-17T15:33:08.459Z,33.40
2022-08-17T15:35:39.866Z,33.80
2022-08-17T15:38:12.467Z,34.60
2022-08-17T15:40:45.757Z,34.90
2022-08-17T15:43:23.314Z,34.40
2022-08-17T15:46:01.263Z,34.90
2022-08-17T15:48:43.045Z,35.00
2022-08-17T15:51:15.902Z,34.70
2022-08-17T15:53:48.415Z,35.40
2022-08-17T15:56:19.699Z,35.40
2022-08-17T15:58:51.828Z,35.80
2022-08-17T16:01:35.156Z,36.60
2022-08-17T16:04:29.955Z,36.70
2022-08-17T16:07:02.098Z,36.60
2022-08-17T16:09:32.809Z,37.00
2022-08-17T16:12:13.655Z,36.90
2022-08-17T16:14:44.396Z,36.50
2022-08-17T16:17:39.624Z,36.30
2022-08-17T16:20:08.640Z,36.50
2022-08-17T16:22:41.235Z,37.20
2022-08-17T16:25:14.498Z,37.00
2022-08-17T16:27:45.457Z,37.10
2022-08-17T16:30:18.122Z,37.10
2022-08-17T16:32:52.285Z,37.50
2022-08-17T16:35:25.921Z,37.70
2022-08-17T16:37:59.115Z,37.60
2022-08-17T16:40:35.860Z,37.60
2022-08-17T16:43:12.862Z,37.70
2022-08-17T16:45:44.869Z,38.00
2022-08-17T16:48:19.862Z,38.00
2022-08-17T16:51:04.341Z,37.60
2022-08-17T16:53:35.421Z,37.90
2022-08-17T16:56:08.352Z,38.00
2022-08-17T16:58:39.181Z,38.60
2022-08-17T17:01:11.122Z,38.90
2022-08-17T17:03:46.827Z,38.40
2022-08-17T17:06:23.905Z,38.50
2022-08-17T17:08:58.896Z,38.30
2022-08-17T17:11:34.843Z,38.40
2022-08-17T17:14:12.858Z,37.70
2022-08-17T17:16:54.858Z,37.90
2022-08-17T17:19:35.757Z,37.80
2022-08-17T17:22:16.607Z,38.00
2022-08-17T17:24:54.505Z,37.90
2022-08-17T17:27:34.425Z,38.40
2022-08-17T17:30:11.854Z,38.70
2022-08-17T17:32:48.157Z,38.60
2022-08-17T17:35:25.693Z,38.50
2022-08-17T17:37:59.553Z,38.70
2022-08-17T17:40:35.734Z,38.80
2022-08-17T17:43:34.909Z,39.10
2022-08-17T17:46:09.189Z,39.60
2022-08-17T17:48:54.233Z,39.60
2022-08-17T17:52:01.954Z,39.60
2022-08-17T17:54:34.807Z,38.90
2022-08-17T17:57:11.792Z,38.50
2022-08-17T17:59:52.220Z,39.30
2022-08-17T18:02:52.994Z,39.50
2022-08-17T18:05:46.757Z,40.00
2022-08-17T18:08:34.063Z,39.70
2022-08-17T18:11:24.265Z,39.00
2022-08-17T18:14:15.292Z,38.90
2022-08-17T18:16:47.181Z,39.00
2022-08-17T18:19:20.844Z,39.10
2022-08-17T18:21:56.267Z,39.60
2022-08-17T18:24:37.887Z,39.70
2022-08-17T18:27:24.041Z,39.70
2022-08-17T18:29:56.310Z,40.00
2022-08-17T18:32:41.599Z,39.30
2022-08-17T18:35:31.870Z,39.20
2022-08-17T18:38:23.119Z,38.90
2022-08-17T18:41:09.440Z,39.10
2022-08-17T18:43:53.129Z,39.10
2022-08-17T18:46:30.417Z,39.30
2022-08-17T18:49:03.489Z,39.60
2022-08-17T18:51:43.177Z,39.30
2022-08-17T18:54:23.454Z,39.40
2022-08-17T18:56:58.081Z,39.60
2022-08-17T18:59:34.337Z,39.60
2022-08-17T19:02:35.015Z,39.60
2022-08-17T19:05:27.890Z,39.90
2022-08-17T19:08:19.997Z,39.40
2022-08-17T19:10:54.444Z,39.60
2022-08-17T19:13:31.796Z,39.50
2022-08-17T19:16:13.889Z,39.20
2022-08-17T19:18:48.398Z,39.50
2022-08-17T19:21:22.822Z,38.90
2022-08-17T19:23:59.700Z,38.60
2022-08-17T19:26:54.419Z,38.60
2022-08-17T19:29:31.957Z,38.90
2022-08-17T19:32:05.705Z,38.80
2022-08-17T19:34:38.954Z,38.60
2022-08-17T19:37:15.800Z,39.20
2022-08-17T19:39:53.464Z,39.20
2022-08-17T19:42:33.206Z,38.90
2022-08-17T19:45:13.249Z,39.30
2022-08-17T19:47:56.031Z,38.90
2022-08-17T19:50:39.130Z,38.30
2022-08-17T19:53:18.404Z,37.90
2022-08-17T19:55:56.504Z,37.70
2022-08-17T19:58:53.153Z,37.50
2022-08-17T20:01:34.971Z,37.30
2022-08-17T20:04:14.684Z,36.70
2022-08-17T20:06:50.054Z,36.60
2022-08-17T20:09:33.860Z,36.70
2022-08-17T20:12:11.164Z,36.80
2022-08-17T20:14:53.273Z,36.90
2022-08-17T20:17:32.909Z,37.00
2022-08-17T20:20:19.323Z,37.00
2022-08-17T20:22:56.535Z,36.70
2022-08-17T20:25:35.211Z,36.50
2022-08-17T20:28:18.907Z,36.80
2022-08-17T20:30:53.496Z,36.70
2022-08-17T20:33:31.247Z,36.80
2022-08-17T20:36:19.543Z,36.90
2022-08-17T20:38:53.956Z,37.10
2022-08-17T20:41:26.455Z,37.30
2022-08-17T20:44:08.297Z,36.70
2022-08-17T20:46:57.904Z,36.60
2022-08-17T20:49:40.585Z,36.80
2022-08-17T20:52:14.228Z,36.80
2022-08-17T20:54:49.064Z,36.80
2022-08-17T20:57:50.457Z,36.80
2022-08-17T21:00:43.220Z,37.00
2022-08-17T21:03:51.498Z,36.90
2022-08-17T21:06:27.067Z,36.70
2022-08-17T21:09:01.256Z,36.80
2022-08-17T21:12:04.147Z,36.70
2022-08-17T21:14:58.818Z,36.80
2022-08-17T21:17:42.844Z,36.90
2022-08-17T21:20:27.846Z,37.00
2022-08-17T21:23:29.580Z,37.10
2022-08-17T21:26:20.222Z,37.10
2022-08-17T21:29:29.719Z,37.10
2022-08-17T21:32:19.017Z,37.20
2022-08-17T21:35:19.973Z,37.30
2022-08-17T21:37:53.885Z,37.30
2022-08-17T21:40:29.880Z,37.20
2022-08-17T21:43:02.874Z,37.00
2022-08-17T21:45:35.948Z,37.00
2022-08-17T21:48:13.872Z,37.10
2022-08-17T21:50:48.331Z,37.10
2022-08-17T21:53:32.760Z,37.20
2022-08-17T21:56:05.973Z,37.30
2022-08-17T21:58:41.458Z,37.50
2022-08-17T22:01:23.352Z,37.60
2022-08-17T22:04:06.390Z,37.50
2022-08-17T22:06:40.610Z,37.60
2022-08-17T22:09:18.718Z,37.60
2022-08-17T22:12:00.147Z,37.50
2022-08-17T22:14:53.003Z,37.60
2022-08-17T22:17:27.233Z,37.60
2022-08-17T22:20:00.573Z,37.50
2022-08-17T22:22:57.762Z,37.60
2022-08-17T22:25:30.384Z,37.40
2022-08-17T22:28:04.834Z,37.30
2022-08-17T22:30:41.000Z,37.20
2022-08-17T22:33:34.200Z,37.20
2022-08-17T22:36:25.891Z,37.20
2022-08-17T22:38:58.545Z,37.10
2022-08-17T22:41:51.315Z,37.10
2022-08-17T22:44:28.509Z,37.20
2022-08-17T22:47:02.867Z,37.40
2022-08-17T22:49:53.940Z,37.50
2022-08-17T22:52:36.149Z,37.40
2022-08-17T22:55:31.474Z,37.40
2022-08-17T22:58:19.570Z,37.40
2022-08-17T23:00:52.648Z,37.30
2022-08-17T23:03:25.394Z,36.80
2022-08-17T23:06:08.094Z,36.70
2022-08-17T23:08:44.821Z,36.70
2022-08-17T23:11:15.907Z,36.70
2022-08-17T23:13:46.836Z,36.80
2022-08-17T23:16:19.391Z,36.90
2022-08-17T23:18:51.731Z,37.00
2022-08-17T23:21:26.454Z,37.00
2022-08-17T23:23:59.939Z,37.00
2022-08-17T23:26:31.070Z,37.00
2022-08-17T23:29:05.121Z,36.90
2022-08-17T23:31:39.438Z,36.70
2022-08-17T23:34:14.247Z,36.60
2022-08-17T23:36:52.448Z,36.50
2022-08-17T23:39:28.070Z,36.40
2022-08-17T23:42:00.533Z,36.40
2022-08-17T23:44:31.899Z,36.40
2022-08-17T23:47:05.485Z,36.40
2022-08-17T23:49:36.976Z,36.30
2022-08-17T23:52:14.965Z,36.30
2022-08-17T23:54:49.144Z,36.20
2022-08-17T23:57:33.553Z,35.90
